sensor_id;sensor_type;location;lat;lon;timestamp;P1;durP1;ratioP1;P2;durP2;ratioP2
75413;SDS011;64758;52.122;5.404;2023-03-30T00:01:00;4.75;;;2.45;;
75413;SDS011;64758;52.122;5.404;2023-03-30T00:03:27;5.22;;;2.80;;
75413;SDS011;64758;52.122;5.404;2023-03-30T00:05:54;4.95;;;2.55;;
75413;SDS011;64758;52.122;5.404;2023-03-30T00:08:22;4.37;;;2.30;;
75413;SDS011;64758;52.122;5.404;2023-03-30T00:11:00;4.90;;;2.35;;
75413;SDS011;64758;52.122;5.404;2023-03-30T00:13:27;5.78;;;2.80;;
75413;SDS011;64758;52.122;5.404;2023-03-30T00:15:54;5.60;;;2.40;;
75413;SDS011;64758;52.122;5.404;2023-03-30T00:18:20;6.63;;;2.58;;
75413;SDS011;64758;52.122;5.404;2023-03-30T00:20:47;5.40;;;2.10;;
75413;SDS011;64758;52.122;5.404;2023-03-30T00:23:15;4.32;;;2.00;;
75413;SDS011;64758;52.122;5.404;2023-03-30T00:25:42;5.18;;;2.25;;
75413;SDS011;64758;52.122;5.404;2023-03-30T00:28:09;6.18;;;2.05;;
75413;SDS011;64758;52.122;5.404;2023-03-30T00:30:35;5.15;;;2.20;;
75413;SDS011;64758;52.122;5.404;2023-03-30T00:33:02;3.13;;;1.57;;
75413;SDS011;64758;52.122;5.404;2023-03-30T00:35:29;6.15;;;2.38;;
75413;SDS011;64758;52.122;5.404;2023-03-30T00:37:56;4.97;;;2.05;;
75413;SDS011;64758;52.122;5.404;2023-03-30T00:40:27;4.05;;;1.98;;
75413;SDS011;64758;52.122;5.404;2023-03-30T00:43:00;5.60;;;1.90;;
75413;SDS011;64758;52.122;5.404;2023-03-30T00:45:33;7.10;;;1.90;;
75413;SDS011;64758;52.122;5.404;2023-03-30T00:48:06;4.97;;;1.75;;
75413;SDS011;64758;52.122;5.404;2023-03-30T00:53:12;4.97;;;1.70;;
75413;SDS011;64758;52.122;5.404;2023-03-30T00:55:41;3.65;;;1.42;;
75413;SDS011;64758;52.122;5.404;2023-03-30T00:58:11;3.63;;;1.70;;
75413;SDS011;64758;52.122;5.404;2023-03-30T01:00:39;4.72;;;1.90;;
75413;SDS011;64758;52.122;5.404;2023-03-30T01:03:10;4.18;;;1.63;;
75413;SDS011;64758;52.122;5.404;2023-03-30T01:05:42;3.88;;;1.33;;
75413;SDS011;64758;52.122;5.404;2023-03-30T01:08:11;4.75;;;1.45;;
75413;SDS011;64758;52.122;5.404;2023-03-30T01:10:44;4.97;;;1.57;;
75413;SDS011;64758;52.122;5.404;2023-03-30T01:13:11;3.40;;;1.45;;
75413;SDS011;64758;52.122;5.404;2023-03-30T01:15:42;6.60;;;1.45;;
75413;SDS011;64758;52.122;5.404;2023-03-30T01:31:57;2.70;;;1.23;;
75413;SDS011;64758;52.122;5.404;2023-03-30T01:40:43;2.97;;;1.20;;
75413;SDS011;64758;52.122;5.404;2023-03-30T01:43:18;3.45;;;1.52;;
75413;SDS011;64758;52.122;5.404;2023-03-30T01:45:54;3.10;;;1.27;;
75413;SDS011;64758;52.122;5.404;2023-03-30T01:48:28;3.13;;;1.40;;
75413;SDS011;64758;52.122;5.404;2023-03-30T01:51:20;4.50;;;1.47;;
75413;SDS011;64758;52.122;5.404;2023-03-30T01:53:53;5.50;;;1.50;;
75413;SDS011;64758;52.122;5.404;2023-03-30T01:56:26;4.10;;;1.48;;
75413;SDS011;64758;52.122;5.404;2023-03-30T01:58:58;3.17;;;1.10;;
75413;SDS011;64758;52.122;5.404;2023-03-30T02:01:33;4.40;;;1.70;;
75413;SDS011;64758;52.122;5.404;2023-03-30T02:04:03;5.00;;;1.47;;
75413;SDS011;64758;52.122;5.404;2023-03-30T02:09:06;5.32;;;1.42;;
75413;SDS011;64758;52.122;5.404;2023-03-30T02:11:37;2.15;;;1.25;;
75413;SDS011;64758;52.122;5.404;2023-03-30T02:14:08;7.50;;;1.35;;
75413;SDS011;64758;52.122;5.404;2023-03-30T02:16:49;5.43;;;2.00;;
75413;SDS011;64758;52.122;5.404;2023-03-30T02:19:20;4.93;;;1.52;;
75413;SDS011;64758;52.122;5.404;2023-03-30T02:21:46;3.78;;;1.63;;
75413;SDS011;64758;52.122;5.404;2023-03-30T02:24:17;4.78;;;1.50;;
75413;SDS011;64758;52.122;5.404;2023-03-30T02:26:48;8.10;;;1.95;;
75413;SDS011;64758;52.122;5.404;2023-03-30T02:29:17;4.37;;;1.40;;
75413;SDS011;64758;52.122;5.404;2023-03-30T02:31:45;5.00;;;1.77;;
75413;SDS011;64758;52.122;5.404;2023-03-30T02:40:07;3.88;;;1.40;;
75413;SDS011;64758;52.122;5.404;2023-03-30T02:42:46;4.70;;;1.37;;
75413;SDS011;64758;52.122;5.404;2023-03-30T02:48:31;3.88;;;1.20;;
75413;SDS011;64758;52.122;5.404;2023-03-30T02:57:03;3.80;;;1.30;;
75413;SDS011;64758;52.122;5.404;2023-03-30T03:02:04;3.17;;;1.10;;
75413;SDS011;64758;52.122;5.404;2023-03-30T03:04:37;3.22;;;1.10;;
75413;SDS011;64758;52.122;5.404;2023-03-30T03:07:11;6.13;;;1.20;;
75413;SDS011;64758;52.122;5.404;2023-03-30T03:09:39;5.10;;;1.10;;
75413;SDS011;64758;52.122;5.404;2023-03-30T03:12:06;1.98;;;0.82;;
75413;SDS011;64758;52.122;5.404;2023-03-30T03:14:33;2.95;;;1.38;;
75413;SDS011;64758;52.122;5.404;2023-03-30T03:16:59;4.15;;;0.77;;
75413;SDS011;64758;52.122;5.404;2023-03-30T03:19:25;3.85;;;0.95;;
75413;SDS011;64758;52.122;5.404;2023-03-30T03:21:52;3.77;;;1.10;;
75413;SDS011;64758;52.122;5.404;2023-03-30T03:24:18;3.47;;;1.10;;
75413;SDS011;64758;52.122;5.404;2023-03-30T03:26:45;2.55;;;0.90;;
75413;SDS011;64758;52.122;5.404;2023-03-30T03:29:12;2.13;;;0.75;;
75413;SDS011;64758;52.122;5.404;2023-03-30T03:31:39;2.95;;;0.80;;
75413;SDS011;64758;52.122;5.404;2023-03-30T03:34:06;4.27;;;0.70;;
75413;SDS011;64758;52.122;5.404;2023-03-30T03:36:32;3.50;;;1.02;;
75413;SDS011;64758;52.122;5.404;2023-03-30T03:38:59;2.28;;;0.88;;
75413;SDS011;64758;52.122;5.404;2023-03-30T03:41:25;3.05;;;0.90;;
75413;SDS011;64758;52.122;5.404;2023-03-30T03:43:52;5.90;;;0.80;;
75413;SDS011;64758;52.122;5.404;2023-03-30T03:46:19;2.63;;;0.70;;
75413;SDS011;64758;52.122;5.404;2023-03-30T03:48:46;3.38;;;0.82;;
75413;SDS011;64758;52.122;5.404;2023-03-30T03:51:12;1.98;;;0.80;;
75413;SDS011;64758;52.122;5.404;2023-03-30T03:53:39;1.63;;;0.50;;
75413;SDS011;64758;52.122;5.404;2023-03-30T03:56:06;5.97;;;0.95;;
75413;SDS011;64758;52.122;5.404;2023-03-30T03:58:33;2.37;;;0.60;;
75413;SDS011;64758;52.122;5.404;2023-03-30T04:01:00;2.38;;;0.63;;
75413;SDS011;64758;52.122;5.404;2023-03-30T04:03:28;2.65;;;0.57;;
75413;SDS011;64758;52.122;5.404;2023-03-30T04:05:58;1.58;;;0.57;;
75413;SDS011;64758;52.122;5.404;2023-03-30T04:08:27;4.13;;;0.80;;
75413;SDS011;64758;52.122;5.404;2023-03-30T04:10:54;3.70;;;0.90;;
75413;SDS011;64758;52.122;5.404;2023-03-30T04:13:21;1.85;;;0.70;;
75413;SDS011;64758;52.122;5.404;2023-03-30T04:15:48;1.65;;;0.60;;
75413;SDS011;64758;52.122;5.404;2023-03-30T04:18:14;1.85;;;0.55;;
75413;SDS011;64758;52.122;5.404;2023-03-30T04:20:41;5.53;;;0.88;;
75413;SDS011;64758;52.122;5.404;2023-03-30T04:23:07;3.17;;;0.60;;
75413;SDS011;64758;52.122;5.404;2023-03-30T04:25:35;4.25;;;0.90;;
75413;SDS011;64758;52.122;5.404;2023-03-30T04:28:02;2.83;;;0.73;;
75413;SDS011;64758;52.122;5.404;2023-03-30T04:30:30;4.95;;;0.82;;
75413;SDS011;64758;52.122;5.404;2023-03-30T04:32:57;3.47;;;0.70;;
75413;SDS011;64758;52.122;5.404;2023-03-30T04:35:31;2.77;;;0.50;;
75413;SDS011;64758;52.122;5.404;2023-03-30T04:37:58;3.05;;;0.75;;
75413;SDS011;64758;52.122;5.404;2023-03-30T04:40:27;5.05;;;0.70;;
75413;SDS011;64758;52.122;5.404;2023-03-30T04:42:55;5.50;;;0.70;;
75413;SDS011;64758;52.122;5.404;2023-03-30T04:45:27;2.53;;;0.68;;
75413;SDS011;64758;52.122;5.404;2023-03-30T04:47:55;2.77;;;0.70;;
75413;SDS011;64758;52.122;5.404;2023-03-30T04:50:21;5.55;;;0.70;;
75413;SDS011;64758;52.122;5.404;2023-03-30T04:52:48;2.85;;;0.63;;
75413;SDS011;64758;52.122;5.404;2023-03-30T04:55:15;3.03;;;0.60;;
75413;SDS011;64758;52.122;5.404;2023-03-30T04:57:41;3.63;;;0.82;;
75413;SDS011;64758;52.122;5.404;2023-03-30T05:00:08;2.93;;;0.80;;
75413;SDS011;64758;52.122;5.404;2023-03-30T05:02:35;2.45;;;0.70;;
75413;SDS011;64758;52.122;5.404;2023-03-30T05:05:01;3.15;;;1.08;;
75413;SDS011;64758;52.122;5.404;2023-03-30T05:07:28;3.47;;;0.70;;
75413;SDS011;64758;52.122;5.404;2023-03-30T05:09:55;3.47;;;0.63;;
75413;SDS011;64758;52.122;5.404;2023-03-30T05:12:21;3.23;;;0.80;;
75413;SDS011;64758;52.122;5.404;2023-03-30T05:14:48;2.80;;;0.75;;
75413;SDS011;64758;52.122;5.404;2023-03-30T05:17:14;3.22;;;0.80;;
75413;SDS011;64758;52.122;5.404;2023-03-30T05:19:41;4.60;;;0.65;;
75413;SDS011;64758;52.122;5.404;2023-03-30T05:22:07;4.00;;;0.90;;
75413;SDS011;64758;52.122;5.404;2023-03-30T05:24:34;5.13;;;0.83;;
75413;SDS011;64758;52.122;5.404;2023-03-30T05:27:01;4.63;;;1.10;;
75413;SDS011;64758;52.122;5.404;2023-03-30T05:29:28;7.68;;;1.17;;
75413;SDS011;64758;52.122;5.404;2023-03-30T05:31:54;7.18;;;1.30;;
75413;SDS011;64758;52.122;5.404;2023-03-30T05:34:21;4.57;;;1.23;;
75413;SDS011;64758;52.122;5.404;2023-03-30T05:36:47;5.00;;;0.97;;
75413;SDS011;64758;52.122;5.404;2023-03-30T05:39:15;5.70;;;1.45;;
75413;SDS011;64758;52.122;5.404;2023-03-30T05:41:41;2.97;;;1.23;;
75413;SDS011;64758;52.122;5.404;2023-03-30T05:44:08;8.30;;;1.80;;
75413;SDS011;64758;52.122;5.404;2023-03-30T05:46:34;6.13;;;1.38;;
75413;SDS011;64758;52.122;5.404;2023-03-30T05:49:01;3.70;;;0.97;;
75413;SDS011;64758;52.122;5.404;2023-03-30T05:51:28;6.25;;;1.27;;
75413;SDS011;64758;52.122;5.404;2023-03-30T05:53:54;5.60;;;1.17;;
75413;SDS011;64758;52.122;5.404;2023-03-30T05:56:21;5.50;;;1.60;;
75413;SDS011;64758;52.122;5.404;2023-03-30T05:58:48;7.05;;;1.40;;
75413;SDS011;64758;52.122;5.404;2023-03-30T06:01:15;5.77;;;1.00;;
75413;SDS011;64758;52.122;5.404;2023-03-30T06:03:42;6.28;;;1.38;;
75413;SDS011;64758;52.122;5.404;2023-03-30T06:06:08;6.88;;;1.30;;
75413;SDS011;64758;52.122;5.404;2023-03-30T06:08:35;9.35;;;1.60;;
75413;SDS011;64758;52.122;5.404;2023-03-30T06:11:02;9.43;;;1.42;;
75413;SDS011;64758;52.122;5.404;2023-03-30T06:13:29;6.40;;;1.00;;
75413;SDS011;64758;52.122;5.404;2023-03-30T06:15:56;9.82;;;1.38;;
75413;SDS011;64758;52.122;5.404;2023-03-30T06:18:25;7.82;;;1.48;;
75413;SDS011;64758;52.122;5.404;2023-03-30T06:20:52;6.07;;;1.65;;
75413;SDS011;64758;52.122;5.404;2023-03-30T06:23:19;5.55;;;1.35;;
75413;SDS011;64758;52.122;5.404;2023-03-30T06:25:45;5.00;;;1.43;;
75413;SDS011;64758;52.122;5.404;2023-03-30T06:28:18;5.93;;;1.33;;
75413;SDS011;64758;52.122;5.404;2023-03-30T06:30:45;8.07;;;1.50;;
75413;SDS011;64758;52.122;5.404;2023-03-30T06:33:14;6.55;;;1.25;;
75413;SDS011;64758;52.122;5.404;2023-03-30T06:35:48;7.13;;;1.30;;
75413;SDS011;64758;52.122;5.404;2023-03-30T06:38:18;7.23;;;1.17;;
75413;SDS011;64758;52.122;5.404;2023-03-30T06:40:46;6.20;;;0.85;;
75413;SDS011;64758;52.122;5.404;2023-03-30T06:43:17;4.65;;;0.98;;
75413;SDS011;64758;52.122;5.404;2023-03-30T06:45:52;8.35;;;0.93;;
75413;SDS011;64758;52.122;5.404;2023-03-30T06:48:20;6.93;;;1.02;;
75413;SDS011;64758;52.122;5.404;2023-03-30T06:50:52;6.67;;;1.33;;
75413;SDS011;64758;52.122;5.404;2023-03-30T06:53:20;9.18;;;1.55;;
75413;SDS011;64758;52.122;5.404;2023-03-30T06:55:51;7.50;;;1.08;;
75413;SDS011;64758;52.122;5.404;2023-03-30T06:58:20;9.63;;;1.20;;
75413;SDS011;64758;52.122;5.404;2023-03-30T07:00:47;12.02;;;1.45;;
75413;SDS011;64758;52.122;5.404;2023-03-30T07:03:14;13.33;;;1.63;;
75413;SDS011;64758;52.122;5.404;2023-03-30T07:05:47;11.50;;;1.60;;
75413;SDS011;64758;52.122;5.404;2023-03-30T07:08:14;10.95;;;1.20;;
75413;SDS011;64758;52.122;5.404;2023-03-30T07:10:42;10.73;;;1.42;;
75413;SDS011;64758;52.122;5.404;2023-03-30T07:13:09;11.60;;;1.23;;
75413;SDS011;64758;52.122;5.404;2023-03-30T07:15:35;7.97;;;1.50;;
75413;SDS011;64758;52.122;5.404;2023-03-30T07:18:02;10.15;;;1.23;;
75413;SDS011;64758;52.122;5.404;2023-03-30T07:20:29;10.40;;;1.35;;
75413;SDS011;64758;52.122;5.404;2023-03-30T07:22:56;9.38;;;1.45;;
75413;SDS011;64758;52.122;5.404;2023-03-30T07:25:23;10.35;;;1.15;;
75413;SDS011;64758;52.122;5.404;2023-03-30T07:27:49;12.57;;;1.13;;
75413;SDS011;64758;52.122;5.404;2023-03-30T07:30:16;13.75;;;1.27;;
75413;SDS011;64758;52.122;5.404;2023-03-30T07:32:48;12.27;;;1.20;;
75413;SDS011;64758;52.122;5.404;2023-03-30T07:35:20;11.52;;;1.50;;
75413;SDS011;64758;52.122;5.404;2023-03-30T07:37:46;11.20;;;1.35;;
75413;SDS011;64758;52.122;5.404;2023-03-30T07:40:16;9.10;;;1.63;;
75413;SDS011;64758;52.122;5.404;2023-03-30T07:42:43;13.45;;;1.90;;
75413;SDS011;64758;52.122;5.404;2023-03-30T07:45:10;8.43;;;1.30;;
75413;SDS011;64758;52.122;5.404;2023-03-30T07:47:40;9.32;;;1.40;;
75413;SDS011;64758;52.122;5.404;2023-03-30T07:50:07;8.50;;;1.60;;
75413;SDS011;64758;52.122;5.404;2023-03-30T07:52:34;11.03;;;1.40;;
75413;SDS011;64758;52.122;5.404;2023-03-30T07:55:02;9.60;;;1.60;;
75413;SDS011;64758;52.122;5.404;2023-03-30T07:57:29;9.50;;;1.52;;
75413;SDS011;64758;52.122;5.404;2023-03-30T07:59:55;12.85;;;1.98;;
75413;SDS011;64758;52.122;5.404;2023-03-30T08:02:22;10.07;;;1.60;;
75413;SDS011;64758;52.122;5.404;2023-03-30T08:04:48;8.83;;;1.43;;
75413;SDS011;64758;52.122;5.404;2023-03-30T08:07:15;7.13;;;1.23;;
75413;SDS011;64758;52.122;5.404;2023-03-30T08:09:42;11.77;;;1.75;;
75413;SDS011;64758;52.122;5.404;2023-03-30T08:12:09;8.35;;;1.50;;
75413;SDS011;64758;52.122;5.404;2023-03-30T08:14:36;6.22;;;1.33;;
75413;SDS011;64758;52.122;5.404;2023-03-30T08:17:02;12.80;;;1.53;;
75413;SDS011;64758;52.122;5.404;2023-03-30T08:19:29;11.55;;;1.23;;
75413;SDS011;64758;52.122;5.404;2023-03-30T08:21:55;13.35;;;2.15;;
75413;SDS011;64758;52.122;5.404;2023-03-30T08:24:22;9.43;;;1.25;;
75413;SDS011;64758;52.122;5.404;2023-03-30T08:26:49;13.60;;;1.88;;
75413;SDS011;64758;52.122;5.404;2023-03-30T08:29:16;7.20;;;1.83;;
75413;SDS011;64758;52.122;5.404;2023-03-30T08:31:44;10.32;;;1.63;;
75413;SDS011;64758;52.122;5.404;2023-03-30T08:34:11;10.57;;;1.65;;
75413;SDS011;64758;52.122;5.404;2023-03-30T08:36:37;11.20;;;1.70;;
75413;SDS011;64758;52.122;5.404;2023-03-30T08:39:04;12.10;;;1.80;;
75413;SDS011;64758;52.122;5.404;2023-03-30T08:44:38;6.65;;;1.05;;
75413;SDS011;64758;52.122;5.404;2023-03-30T08:47:12;10.98;;;1.92;;
75413;SDS011;64758;52.122;5.404;2023-03-30T08:49:43;14.25;;;1.67;;
75413;SDS011;64758;52.122;5.404;2023-03-30T08:52:21;13.32;;;1.88;;
75413;SDS011;64758;52.122;5.404;2023-03-30T08:54:50;11.30;;;1.33;;
75413;SDS011;64758;52.122;5.404;2023-03-30T08:57:31;9.77;;;1.77;;
75413;SDS011;64758;52.122;5.404;2023-03-30T09:02:42;6.57;;;1.00;;
75413;SDS011;64758;52.122;5.404;2023-03-30T09:05:17;16.98;;;1.85;;
75413;SDS011;64758;52.122;5.404;2023-03-30T09:07:51;6.63;;;1.47;;
75413;SDS011;64758;52.122;5.404;2023-03-30T09:10:28;9.02;;;1.58;;
75413;SDS011;64758;52.122;5.404;2023-03-30T09:12:58;8.80;;;1.20;;
75413;SDS011;64758;52.122;5.404;2023-03-30T09:15:28;5.97;;;1.05;;
75413;SDS011;64758;52.122;5.404;2023-03-30T09:20:37;15.70;;;1.47;;
75413;SDS011;64758;52.122;5.404;2023-03-30T09:23:09;9.55;;;1.02;;
75413;SDS011;64758;52.122;5.404;2023-03-30T09:25:41;11.47;;;1.60;;
75413;SDS011;64758;52.122;5.404;2023-03-30T09:28:17;9.23;;;1.42;;
75413;SDS011;64758;52.122;5.404;2023-03-30T09:30:51;8.85;;;1.27;;
75413;SDS011;64758;52.122;5.404;2023-03-30T09:33:44;11.13;;;1.23;;
75413;SDS011;64758;52.122;5.404;2023-03-30T09:36:13;11.73;;;1.57;;
75413;SDS011;64758;52.122;5.404;2023-03-30T09:38:41;13.32;;;1.88;;
75413;SDS011;64758;52.122;5.404;2023-03-30T09:41:15;18.10;;;1.70;;
75413;SDS011;64758;52.122;5.404;2023-03-30T09:43:48;10.85;;;1.60;;
75413;SDS011;64758;52.122;5.404;2023-03-30T09:46:16;15.02;;;2.22;;
75413;SDS011;64758;52.122;5.404;2023-03-30T09:48:44;9.50;;;1.20;;
75413;SDS011;64758;52.122;5.404;2023-03-30T09:51:22;12.55;;;2.00;;
75413;SDS011;64758;52.122;5.404;2023-03-30T09:54:01;13.77;;;2.28;;
75413;SDS011;64758;52.122;5.404;2023-03-30T09:56:39;12.25;;;1.75;;
75413;SDS011;64758;52.122;5.404;2023-03-30T09:59:27;15.77;;;2.33;;
75413;SDS011;64758;52.122;5.404;2023-03-30T10:09:53;14.50;;;1.67;;
75413;SDS011;64758;52.122;5.404;2023-03-30T10:12:22;9.27;;;1.60;;
75413;SDS011;64758;52.122;5.404;2023-03-30T10:14:56;12.33;;;1.63;;
75413;SDS011;64758;52.122;5.404;2023-03-30T10:17:27;13.13;;;1.48;;
75413;SDS011;64758;52.122;5.404;2023-03-30T10:20:20;13.38;;;1.45;;
75413;SDS011;64758;52.122;5.404;2023-03-30T10:23:01;17.17;;;2.40;;
75413;SDS011;64758;52.122;5.404;2023-03-30T10:25:31;17.52;;;2.10;;
75413;SDS011;64758;52.122;5.404;2023-03-30T10:27:59;17.40;;;2.17;;
75413;SDS011;64758;52.122;5.404;2023-03-30T10:30:28;11.48;;;1.92;;
75413;SDS011;64758;52.122;5.404;2023-03-30T10:32:56;12.00;;;1.13;;
75413;SDS011;64758;52.122;5.404;2023-03-30T10:35:26;21.63;;;3.67;;
75413;SDS011;64758;52.122;5.404;2023-03-30T10:37:59;15.57;;;1.80;;
75413;SDS011;64758;52.122;5.404;2023-03-30T10:40:38;14.37;;;2.10;;
75413;SDS011;64758;52.122;5.404;2023-03-30T10:43:11;14.45;;;1.80;;
75413;SDS011;64758;52.122;5.404;2023-03-30T10:46:15;22.65;;;2.38;;
75413;SDS011;64758;52.122;5.404;2023-03-30T10:51:35;17.77;;;2.53;;
75413;SDS011;64758;52.122;5.404;2023-03-30T10:54:12;12.90;;;2.03;;
75413;SDS011;64758;52.122;5.404;2023-03-30T10:56:48;11.77;;;1.73;;
75413;SDS011;64758;52.122;5.404;2023-03-30T11:02:13;10.88;;;2.33;;
75413;SDS011;64758;52.122;5.404;2023-03-30T11:10:40;17.98;;;3.03;;
75413;SDS011;64758;52.122;5.404;2023-03-30T11:13:12;13.52;;;1.50;;
75413;SDS011;64758;52.122;5.404;2023-03-30T11:16:07;16.35;;;2.25;;
75413;SDS011;64758;52.122;5.404;2023-03-30T11:21:14;14.37;;;1.33;;
75413;SDS011;64758;52.122;5.404;2023-03-30T11:23:53;13.35;;;2.08;;
75413;SDS011;64758;52.122;5.404;2023-03-30T11:26:23;9.15;;;1.40;;
75413;SDS011;64758;52.122;5.404;2023-03-30T11:29:11;8.52;;;1.52;;
75413;SDS011;64758;52.122;5.404;2023-03-30T11:39:48;9.10;;;0.93;;
75413;SDS011;64758;52.122;5.404;2023-03-30T11:42:27;11.20;;;1.33;;
75413;SDS011;64758;52.122;5.404;2023-03-30T11:44:56;11.40;;;1.30;;
75413;SDS011;64758;52.122;5.404;2023-03-30T11:53:01;11.75;;;1.45;;
75413;SDS011;64758;52.122;5.404;2023-03-30T11:55:45;13.52;;;1.25;;
75413;SDS011;64758;52.122;5.404;2023-03-30T11:58:17;14.32;;;1.85;;
75413;SDS011;64758;52.122;5.404;2023-03-30T12:03:40;11.90;;;1.20;;
75413;SDS011;64758;52.122;5.404;2023-03-30T12:09:17;7.85;;;0.90;;
75413;SDS011;64758;52.122;5.404;2023-03-30T12:16:55;10.05;;;1.88;;
75413;SDS011;64758;52.122;5.404;2023-03-30T12:19:33;8.57;;;1.40;;
75413;SDS011;64758;52.122;5.404;2023-03-30T12:28:13;12.97;;;2.27;;
75413;SDS011;64758;52.122;5.404;2023-03-30T12:33:24;14.13;;;1.88;;
75413;SDS011;64758;52.122;5.404;2023-03-30T12:36:42;14.63;;;1.52;;
75413;SDS011;64758;52.122;5.404;2023-03-30T12:38:56;10.02;;;1.67;;
75413;SDS011;64758;52.122;5.404;2023-03-30T12:41:28;16.30;;;2.47;;
75413;SDS011;64758;52.122;5.404;2023-03-30T12:47:17;14.68;;;2.00;;
75413;SDS011;64758;52.122;5.404;2023-03-30T13:04:24;13.88;;;1.80;;
75413;SDS011;64758;52.122;5.404;2023-03-30T13:06:55;13.43;;;1.30;;
75413;SDS011;64758;52.122;5.404;2023-03-30T13:19:27;11.52;;;1.30;;
75413;SDS011;64758;52.122;5.404;2023-03-30T13:29:47;14.88;;;1.50;;
75413;SDS011;64758;52.122;5.404;2023-03-30T13:38:27;14.43;;;1.65;;
75413;SDS011;64758;52.122;5.404;2023-03-30T13:41:19;11.88;;;1.55;;
75413;SDS011;64758;52.122;5.404;2023-03-30T13:49:38;9.77;;;1.20;;
75413;SDS011;64758;52.122;5.404;2023-03-30T13:52:31;12.50;;;2.15;;
75413;SDS011;64758;52.122;5.404;2023-03-30T13:55:04;12.80;;;1.48;;
75413;SDS011;64758;52.122;5.404;2023-03-30T13:57:40;14.32;;;1.92;;
75413;SDS011;64758;52.122;5.404;2023-03-30T14:00:15;13.55;;;1.92;;
75413;SDS011;64758;52.122;5.404;2023-03-30T14:02:50;14.23;;;2.17;;
75413;SDS011;64758;52.122;5.404;2023-03-30T14:05:18;11.50;;;1.52;;
75413;SDS011;64758;52.122;5.404;2023-03-30T14:07:47;15.10;;;1.80;;
75413;SDS011;64758;52.122;5.404;2023-03-30T14:10:18;15.13;;;1.73;;
75413;SDS011;64758;52.122;5.404;2023-03-30T14:12:55;11.13;;;1.58;;
75413;SDS011;64758;52.122;5.404;2023-03-30T14:17:53;10.82;;;1.20;;
75413;SDS011;64758;52.122;5.404;2023-03-30T14:20:27;15.82;;;1.70;;
75413;SDS011;64758;52.122;5.404;2023-03-30T14:23:05;13.48;;;1.73;;
75413;SDS011;64758;52.122;5.404;2023-03-30T14:25:37;11.00;;;1.30;;
75413;SDS011;64758;52.122;5.404;2023-03-30T14:28:12;8.53;;;1.27;;
75413;SDS011;64758;52.122;5.404;2023-03-30T14:30:50;13.40;;;1.40;;
75413;SDS011;64758;52.122;5.404;2023-03-30T14:33:30;8.23;;;1.00;;
75413;SDS011;64758;52.122;5.404;2023-03-30T14:35:58;9.07;;;1.10;;
75413;SDS011;64758;52.122;5.404;2023-03-30T14:38:32;12.63;;;1.58;;
75413;SDS011;64758;52.122;5.404;2023-03-30T14:41:04;11.20;;;1.80;;
75413;SDS011;64758;52.122;5.404;2023-03-30T14:43:33;11.13;;;1.25;;
75413;SDS011;64758;52.122;5.404;2023-03-30T14:46:05;12.07;;;1.98;;
75413;SDS011;64758;52.122;5.404;2023-03-30T14:48:35;10.27;;;1.73;;
75413;SDS011;64758;52.122;5.404;2023-03-30T14:53:46;11.00;;;1.13;;
75413;SDS011;64758;52.122;5.404;2023-03-30T14:56:13;10.63;;;2.13;;
75413;SDS011;64758;52.122;5.404;2023-03-30T14:58:43;7.70;;;1.52;;
75413;SDS011;64758;52.122;5.404;2023-03-30T15:01:12;14.75;;;1.63;;
75413;SDS011;64758;52.122;5.404;2023-03-30T15:03:43;9.70;;;1.13;;
75413;SDS011;64758;52.122;5.404;2023-03-30T15:06:10;7.37;;;1.57;;
75413;SDS011;64758;52.122;5.404;2023-03-30T15:08:42;13.20;;;1.13;;
75413;SDS011;64758;52.122;5.404;2023-03-30T15:11:12;10.20;;;1.40;;
75413;SDS011;64758;52.122;5.404;2023-03-30T15:13:53;10.02;;;1.45;;
75413;SDS011;64758;52.122;5.404;2023-03-30T15:16:27;14.52;;;1.23;;
75413;SDS011;64758;52.122;5.404;2023-03-30T15:19:04;9.93;;;1.30;;
75413;SDS011;64758;52.122;5.404;2023-03-30T15:21:36;7.72;;;0.70;;
75413;SDS011;64758;52.122;5.404;2023-03-30T15:24:04;7.65;;;1.23;;
75413;SDS011;64758;52.122;5.404;2023-03-30T15:26:32;5.43;;;0.90;;
75413;SDS011;64758;52.122;5.404;2023-03-30T15:29:00;8.35;;;1.70;;
75413;SDS011;64758;52.122;5.404;2023-03-30T15:31:26;8.93;;;1.03;;
75413;SDS011;64758;52.122;5.404;2023-03-30T15:33:54;11.93;;;1.35;;
75413;SDS011;64758;52.122;5.404;2023-03-30T15:38:58;9.55;;;1.80;;
75413;SDS011;64758;52.122;5.404;2023-03-30T15:41:44;8.20;;;1.20;;
75413;SDS011;64758;52.122;5.404;2023-03-30T15:44:19;8.40;;;1.70;;
75413;SDS011;64758;52.122;5.404;2023-03-30T15:46:47;11.07;;;1.40;;
75413;SDS011;64758;52.122;5.404;2023-03-30T15:49:19;7.90;;;1.00;;
75413;SDS011;64758;52.122;5.404;2023-03-30T15:51:50;12.18;;;1.35;;
75413;SDS011;64758;52.122;5.404;2023-03-30T15:54:37;9.10;;;1.33;;
75413;SDS011;64758;52.122;5.404;2023-03-30T15:59:48;9.90;;;0.85;;
75413;SDS011;64758;52.122;5.404;2023-03-30T16:05:18;10.30;;;1.15;;
75413;SDS011;64758;52.122;5.404;2023-03-30T16:07:46;7.45;;;1.00;;
75413;SDS011;64758;52.122;5.404;2023-03-30T16:10:14;8.70;;;1.40;;
75413;SDS011;64758;52.122;5.404;2023-03-30T16:12:44;10.60;;;1.42;;
75413;SDS011;64758;52.122;5.404;2023-03-30T16:15:20;11.30;;;1.40;;
75413;SDS011;64758;52.122;5.404;2023-03-30T16:17:48;11.98;;;1.35;;
75413;SDS011;64758;52.122;5.404;2023-03-30T16:20:16;9.02;;;1.77;;
75413;SDS011;64758;52.122;5.404;2023-03-30T16:22:45;10.10;;;1.23;;
75413;SDS011;64758;52.122;5.404;2023-03-30T16:25:16;11.82;;;1.33;;
75413;SDS011;64758;52.122;5.404;2023-03-30T16:27:46;9.15;;;1.15;;
75413;SDS011;64758;52.122;5.404;2023-03-30T16:30:29;8.27;;;1.83;;
75413;SDS011;64758;52.122;5.404;2023-03-30T16:33:02;11.65;;;1.40;;
75413;SDS011;64758;52.122;5.404;2023-03-30T16:35:30;18.50;;;1.50;;
75413;SDS011;64758;52.122;5.404;2023-03-30T16:37:56;11.93;;;1.50;;
75413;SDS011;64758;52.122;5.404;2023-03-30T16:42:49;6.72;;;1.45;;
75413;SDS011;64758;52.122;5.404;2023-03-30T16:45:16;8.32;;;1.10;;
75413;SDS011;64758;52.122;5.404;2023-03-30T16:47:42;8.03;;;1.07;;
75413;SDS011;64758;52.122;5.404;2023-03-30T16:50:13;10.90;;;1.23;;
75413;SDS011;64758;52.122;5.404;2023-03-30T16:52:45;5.90;;;1.20;;
75413;SDS011;64758;52.122;5.404;2023-03-30T16:55:13;8.43;;;1.00;;
75413;SDS011;64758;52.122;5.404;2023-03-30T16:57:40;11.52;;;1.30;;
75413;SDS011;64758;52.122;5.404;2023-03-30T17:00:29;8.83;;;1.10;;
75413;SDS011;64758;52.122;5.404;2023-03-30T17:02:55;10.65;;;0.80;;
75413;SDS011;64758;52.122;5.404;2023-03-30T17:05:22;9.70;;;1.08;;
75413;SDS011;64758;52.122;5.404;2023-03-30T17:07:51;8.85;;;1.17;;
75413;SDS011;64758;52.122;5.404;2023-03-30T17:10:24;6.35;;;0.82;;
75413;SDS011;64758;52.122;5.404;2023-03-30T17:12:53;7.93;;;1.07;;
75413;SDS011;64758;52.122;5.404;2023-03-30T17:15:21;7.40;;;0.95;;
75413;SDS011;64758;52.122;5.404;2023-03-30T17:17:49;7.60;;;1.20;;
75413;SDS011;64758;52.122;5.404;2023-03-30T17:20:32;7.78;;;1.48;;
75413;SDS011;64758;52.122;5.404;2023-03-30T17:23:02;10.65;;;1.42;;
75413;SDS011;64758;52.122;5.404;2023-03-30T17:25:29;6.07;;;0.97;;
75413;SDS011;64758;52.122;5.404;2023-03-30T17:27:56;7.90;;;1.42;;
75413;SDS011;64758;52.122;5.404;2023-03-30T17:30:24;9.30;;;1.08;;
75413;SDS011;64758;52.122;5.404;2023-03-30T17:32:53;12.48;;;1.58;;
75413;SDS011;64758;52.122;5.404;2023-03-30T17:35:20;9.15;;;0.98;;
75413;SDS011;64758;52.122;5.404;2023-03-30T17:37:51;10.30;;;1.00;;
75413;SDS011;64758;52.122;5.404;2023-03-30T17:40:28;6.18;;;1.08;;
75413;SDS011;64758;52.122;5.404;2023-03-30T17:42:56;10.30;;;0.90;;
75413;SDS011;64758;52.122;5.404;2023-03-30T17:45:24;12.70;;;1.15;;
75413;SDS011;64758;52.122;5.404;2023-03-30T17:47:52;7.22;;;1.10;;
75413;SDS011;64758;52.122;5.404;2023-03-30T17:50:23;9.03;;;0.87;;
75413;SDS011;64758;52.122;5.404;2023-03-30T17:52:52;9.27;;;1.33;;